createdAt,value
2017-08-28T00:00:11.782Z,75.11
2017-08-28T00:01:09.029Z,75.12
2017-08-28T00:02:06.332Z,75.14
2017-08-28T00:03:03.620Z,75.13
2017-08-28T00:04:00.916Z,75.15
2017-08-28T00:04:58.189Z,75.15
2017-08-28T00:05:55.467Z,75.18
2017-08-28T00:06:52.753Z,75.18
2017-08-28T00:07:50.027Z,75.18
2017-08-28T00:08:47.281Z,75.18
2017-08-28T00:09:44.565Z,75.17
2017-08-28T00:10:41.861Z,75.18
2017-08-28T00:11:39.134Z,75.19
2017-08-28T00:12:36.474Z,75.16
2017-08-28T00:13:33.762Z,75.20
2017-08-28T00:14:31.020Z,75.20
2017-08-28T00:15:28.301Z,75.21
2017-08-28T00:16:25.556Z,75.21
2017-08-28T00:17:22.859Z,75.23
2017-08-28T00:18:20.134Z,75.24
2017-08-28T00:19:17.409Z,75.23
2017-08-28T00:20:14.665Z,75.20
2017-08-28T00:21:11.993Z,75.22
2017-08-28T00:22:09.269Z,75.23
2017-08-28T00:23:06.545Z,75.23
2017-08-28T00:24:03.833Z,75.25
2017-08-28T00:25:01.113Z,75.25
2017-08-28T00:25:58.385Z,75.28
2017-08-28T00:26:55.666Z,75.29
2017-08-28T00:27:52.957Z,75.29
2017-08-28T00:28:50.337Z,75.30
2017-08-28T00:29:47.594Z,75.30
2017-08-28T00:30:44.857Z,75.31
2017-08-28T00:31:42.121Z,75.32
2017-08-28T00:32:39.419Z,75.34
2017-08-28T00:33:36.670Z,75.33
2017-08-28T00:34:33.941Z,75.33
2017-08-28T00:35:31.215Z,75.36
2017-08-28T00:36:28.489Z,75.34
2017-08-28T00:37:25.792Z,75.33
2017-08-28T00:38:23.077Z,75.36
2017-08-28T00:39:20.397Z,75.36
2017-08-28T00:40:17.674Z,75.38
2017-08-28T00:41:14.932Z,75.35
2017-08-28T00:42:12.214Z,75.36
2017-08-28T00:43:09.493Z,75.36
2017-08-28T00:44:06.785Z,75.35
2017-08-28T00:45:04.050Z,75.36
2017-08-28T00:46:01.316Z,75.37
2017-08-28T00:46:58.575Z,75.38
2017-08-28T00:47:55.898Z,75.40
2017-08-28T00:48:53.159Z,75.41
2017-08-28T00:49:50.450Z,75.42
2017-08-28T00:50:47.722Z,75.41
2017-08-28T00:51:45.015Z,75.43
2017-08-28T00:52:42.274Z,75.44
2017-08-28T00:53:39.574Z,75.44
2017-08-28T00:54:36.814Z,75.44
2017-08-28T00:55:34.100Z,75.44
2017-08-28T00:56:31.368Z,75.45
2017-08-28T00:57:28.629Z,75.44
2017-08-28T00:58:25.920Z,75.44
2017-08-28T00:59:23.206Z,75.43
2017-08-28T01:00:20.466Z,75.45
2017-08-28T01:01:17.751Z,75.44
2017-08-28T01:02:15.021Z,75.45
2017-08-28T01:03:12.321Z,75.45
2017-08-28T01:04:09.586Z,75.46
2017-08-28T01:05:08.770Z,75.46
2017-08-28T01:06:06.044Z,75.48
2017-08-28T01:07:03.332Z,75.47
2017-08-28T01:08:00.614Z,75.50
2017-08-28T01:08:57.902Z,75.47
2017-08-28T01:09:59.139Z,75.48
2017-08-28T01:10:56.436Z,75.49
2017-08-28T01:11:53.714Z,75.51
2017-08-28T01:12:51.097Z,75.51
2017-08-28T01:13:48.384Z,75.50
2017-08-28T01:14:45.676Z,75.52
2017-08-28T01:15:42.937Z,75.50
2017-08-28T01:16:40.196Z,75.50
2017-08-28T01:17:37.454Z,75.50
2017-08-28T01:18:34.754Z,75.51
2017-08-28T01:19:32.004Z,75.52
2017-08-28T01:20:29.296Z,75.53
2017-08-28T01:21:26.542Z,75.52
2017-08-28T01:22:23.816Z,75.50
2017-08-28T01:23:21.069Z,75.52
2017-08-28T01:24:18.369Z,75.51
2017-08-28T01:25:15.640Z,75.51
2017-08-28T01:26:12.911Z,75.53
2017-08-28T01:27:10.177Z,75.54
2017-08-28T01:28:07.445Z,75.53
2017-08-28T01:29:04.721Z,75.55
2017-08-28T01:30:01.989Z,75.55
2017-08-28T01:30:59.270Z,75.58
2017-08-28T01:31:56.554Z,75.58
2017-08-28T01:32:53.808Z,75.59
2017-08-28T01:33:51.114Z,75.62
2017-08-28T01:34:48.394Z,75.61
2017-08-28T01:35:45.684Z,75.62
2017-08-28T01:36:42.949Z,75.61
2017-08-28T01:37:40.240Z,75.62
2017-08-28T01:38:37.502Z,75.63
2017-08-28T01:39:34.803Z,75.63
2017-08-28T01:40:32.084Z,75.63
2017-08-28T01:41:29.361Z,75.62
2017-08-28T01:42:26.625Z,75.63
2017-08-28T01:43:23.918Z,75.66
2017-08-28T01:44:21.231Z,75.66
2017-08-28T01:45:18.522Z,75.66
2017-08-28T01:46:15.810Z,75.64
2017-08-28T01:47:13.090Z,75.69
2017-08-28T01:48:10.362Z,75.67
2017-08-28T01:49:07.675Z,75.69
2017-08-28T01:50:04.947Z,75.69
2017-08-28T01:51:02.242Z,75.70
2017-08-28T01:51:59.525Z,75.71
2017-08-28T01:52:56.825Z,75.69
2017-08-28T01:53:54.102Z,75.72
2017-08-28T01:54:51.405Z,75.72
2017-08-28T01:55:48.685Z,75.70
2017-08-28T01:56:45.961Z,75.73
2017-08-28T01:57:43.225Z,75.73
2017-08-28T01:58:40.509Z,75.75
2017-08-28T01:59:37.811Z,75.78
2017-08-28T02:00:35.086Z,75.77
2017-08-28T02:01:32.365Z,75.78
2017-08-28T02:02:29.650Z,75.78
2017-08-28T02:03:26.919Z,75.80
2017-08-28T02:04:24.238Z,75.79
2017-08-28T02:05:21.506Z,75.81
2017-08-28T02:06:18.794Z,75.81
2017-08-28T02:07:16.067Z,75.81
2017-08-28T02:08:13.366Z,75.82
2017-08-28T02:09:10.629Z,75.83
2017-08-28T02:10:07.934Z,75.85
2017-08-28T02:11:05.198Z,75.83
2017-08-28T02:12:02.475Z,75.83
2017-08-28T02:12:59.755Z,75.84
2017-08-28T02:13:57.040Z,75.85
2017-08-28T02:14:54.317Z,75.84
2017-08-28T02:15:51.615Z,75.86
2017-08-28T02:16:48.893Z,75.83
2017-08-28T02:17:46.173Z,75.86
2017-08-28T02:18:43.433Z,75.86
2017-08-28T02:19:40.718Z,75.85
2017-08-28T02:20:38.018Z,75.87
2017-08-28T02:21:35.303Z,75.87
2017-08-28T02:22:32.566Z,75.88
2017-08-28T02:23:29.894Z,75.89
2017-08-28T02:24:27.413Z,75.88
2017-08-28T02:25:24.718Z,75.90
2017-08-28T02:26:21.982Z,75.90
2017-08-28T02:27:19.251Z,75.92
2017-08-28T02:28:16.534Z,75.92
2017-08-28T02:29:13.818Z,75.92
2017-08-28T02:30:11.110Z,75.92
2017-08-28T02:31:08.382Z,75.90
2017-08-28T02:32:05.672Z,75.91
2017-08-28T02:33:02.946Z,75.92
2017-08-28T02:34:00.218Z,75.94
2017-08-28T02:34:57.491Z,75.94
2017-08-28T02:35:54.793Z,75.94
2017-08-28T02:36:52.073Z,75.94
2017-08-28T02:37:49.337Z,75.98
2017-08-28T02:38:46.626Z,75.98
2017-08-28T02:39:43.891Z,75.99
2017-08-28T02:40:41.204Z,75.99
2017-08-28T02:41:38.466Z,76.02
2017-08-28T02:42:35.734Z,76.03
2017-08-28T02:43:32.992Z,76.03
2017-08-28T02:44:30.269Z,76.06
2017-08-28T02:45:27.546Z,76.03
2017-08-28T02:46:24.925Z,76.05
2017-08-28T02:47:22.187Z,76.05
2017-08-28T02:48:19.466Z,76.11
2017-08-28T02:49:16.721Z,76.09
2017-08-28T02:50:14.008Z,76.11
2017-08-28T02:51:11.296Z,76.10
2017-08-28T02:52:08.570Z,76.12
2017-08-28T02:53:05.838Z,76.15
2017-08-28T02:54:03.121Z,76.13
2017-08-28T02:55:00.383Z,76.14
2017-08-28T02:55:57.685Z,76.14
2017-08-28T02:56:54.936Z,76.16
2017-08-28T02:57:52.378Z,76.17
2017-08-28T02:58:49.637Z,76.21
2017-08-28T02:59:46.912Z,76.20
2017-08-28T03:00:44.182Z,76.23
2017-08-28T03:01:41.517Z,76.21
2017-08-28T03:02:38.781Z,76.24
2017-08-28T03:03:36.078Z,76.24
2017-08-28T03:04:33.330Z,76.24
2017-08-28T03:05:30.622Z,76.24
2017-08-28T03:06:27.929Z,76.24
2017-08-28T03:07:25.197Z,76.24
2017-08-28T03:08:22.466Z,76.25
2017-08-28T03:09:19.741Z,76.25
2017-08-28T03:10:17.007Z,76.31
2017-08-28T03:11:14.293Z,76.29
2017-08-28T03:12:11.565Z,76.30
2017-08-28T03:13:08.830Z,76.30
2017-08-28T03:14:06.080Z,76.30
2017-08-28T03:15:03.359Z,76.31
2017-08-28T03:16:00.646Z,76.35
2017-08-28T03:16:57.938Z,76.34
2017-08-28T03:17:55.218Z,76.35
2017-08-28T03:18:52.514Z,76.34
2017-08-28T03:19:49.774Z,76.37
2017-08-28T03:20:47.044Z,76.37
2017-08-28T03:21:44.351Z,76.40
2017-08-28T03:22:41.621Z,76.39
2017-08-28T03:23:38.893Z,76.42
2017-08-28T03:24:36.182Z,76.41
2017-08-28T03:25:33.445Z,76.41
2017-08-28T03:26:30.762Z,76.43
2017-08-28T03:27:28.044Z,76.45
2017-08-28T03:28:25.339Z,76.46
2017-08-28T03:29:22.602Z,76.46
2017-08-28T03:30:19.934Z,76.46
2017-08-28T03:31:17.190Z,76.48
2017-08-28T03:32:14.510Z,76.47
2017-08-28T03:33:11.769Z,76.50
2017-08-28T03:34:09.061Z,76.52
2017-08-28T03:35:06.332Z,76.55
2017-08-28T03:36:03.632Z,76.54
2017-08-28T03:37:03.005Z,76.55
2017-08-28T03:38:00.302Z,76.55
2017-08-28T03:38:57.646Z,76.56
2017-08-28T03:39:54.984Z,76.57
2017-08-28T03:40:54.333Z,76.56
2017-08-28T03:41:51.678Z,76.59
2017-08-28T03:42:49.461Z,76.59
2017-08-28T03:43:48.817Z,76.60
2017-08-28T03:44:48.817Z,76.62
2017-08-28T03:45:48.166Z,76.64
2017-08-28T03:46:47.542Z,76.65
2017-08-28T03:47:44.916Z,76.65
2017-08-28T03:48:42.242Z,76.65
2017-08-28T03:49:39.658Z,76.62
2017-08-28T03:50:36.999Z,76.65
2017-08-28T03:51:34.350Z,76.67
2017-08-28T03:52:31.693Z,76.67
2017-08-28T03:53:29.121Z,76.70
2017-08-28T03:54:26.506Z,76.70
2017-08-28T03:55:23.905Z,76.71
2017-08-28T03:56:21.294Z,76.71
2017-08-28T03:57:18.693Z,76.75
2017-08-28T03:58:16.086Z,76.75
2017-08-28T03:59:13.529Z,76.75
2017-08-28T04:00:11.386Z,76.75
2017-08-28T04:01:08.917Z,76.75
2017-08-28T04:02:06.267Z,76.76
2017-08-28T04:03:03.820Z,76.76
2017-08-28T04:04:01.174Z,76.76
2017-08-28T04:04:58.557Z,76.75
2017-08-28T04:05:55.878Z,76.77
2017-08-28T04:06:53.235Z,76.77
2017-08-28T04:07:50.633Z,76.79
2017-08-28T04:08:47.968Z,76.78
2017-08-28T04:09:45.271Z,76.78
2017-08-28T04:10:42.597Z,76.77
2017-08-28T04:11:39.857Z,76.77
2017-08-28T04:12:37.171Z,76.78
2017-08-28T04:13:34.429Z,76.78
2017-08-28T04:14:31.721Z,76.73
2017-08-28T04:15:28.998Z,76.77
2017-08-28T04:16:26.274Z,76.76
2017-08-28T04:17:23.545Z,76.76
2017-08-28T04:18:20.853Z,76.76
2017-08-28T04:19:18.122Z,76.77
2017-08-28T04:20:15.426Z,76.77
2017-08-28T04:21:12.685Z,76.76
2017-08-28T04:22:09.994Z,76.77
2017-08-28T04:23:07.315Z,76.77
2017-08-28T04:24:04.585Z,76.78
2017-08-28T04:25:01.862Z,76.79
2017-08-28T04:25:59.181Z,76.79
2017-08-28T04:26:56.446Z,76.77
2017-08-28T04:27:53.725Z,76.79
2017-08-28T04:28:51.006Z,76.78
2017-08-28T04:29:48.337Z,76.79
2017-08-28T04:30:45.607Z,76.80
2017-08-28T04:31:42.899Z,76.82
2017-08-28T04:32:40.182Z,76.81
2017-08-28T04:33:37.489Z,76.83
2017-08-28T04:34:34.741Z,76.82
2017-08-28T04:35:32.013Z,76.83
2017-08-28T04:36:29.266Z,76.85
2017-08-28T04:37:26.970Z,76.85
2017-08-28T04:38:24.370Z,76.85
2017-08-28T04:39:21.638Z,76.85
2017-08-28T04:40:18.917Z,76.86
2017-08-28T04:41:16.264Z,76.86
2017-08-28T04:42:13.521Z,76.87
2017-08-28T04:43:10.785Z,76.87
2017-08-28T04:44:08.066Z,76.88
2017-08-28T04:45:05.338Z,76.89
2017-08-28T04:46:02.611Z,76.90
2017-08-28T04:46:59.881Z,76.91
2017-08-28T04:47:57.273Z,76.91
2017-08-28T04:48:54.562Z,76.92
2017-08-28T04:49:51.827Z,76.93
2017-08-28T04:50:49.090Z,76.95
2017-08-28T04:51:46.374Z,76.94
2017-08-28T04:52:43.641Z,76.95
2017-08-28T04:53:40.942Z,76.95
2017-08-28T04:54:38.227Z,76.96
2017-08-28T04:55:35.489Z,76.98
2017-08-28T04:56:32.765Z,76.99
2017-08-28T04:57:30.034Z,76.98
2017-08-28T04:58:27.321Z,76.99
2017-08-28T04:59:24.611Z,76.99
2017-08-28T05:00:21.904Z,77.00
2017-08-28T05:01:19.170Z,77.00
2017-08-28T05:02:16.457Z,77.04
2017-08-28T05:03:13.709Z,77.05
2017-08-28T05:04:10.995Z,77.05
2017-08-28T05:05:08.245Z,77.06
2017-08-28T05:06:05.521Z,77.07
2017-08-28T05:07:02.770Z,77.06
2017-08-28T05:08:00.069Z,77.06
2017-08-28T05:08:57.355Z,77.08
2017-08-28T05:09:54.646Z,77.07
2017-08-28T05:10:51.903Z,77.09
2017-08-28T05:11:49.181Z,77.11
2017-08-28T05:12:46.447Z,77.11
2017-08-28T05:13:43.728Z,77.13
2017-08-28T05:14:41.004Z,77.14
2017-08-28T05:15:38.266Z,77.15
2017-08-28T05:16:35.564Z,77.17
2017-08-28T05:17:32.857Z,77.19
2017-08-28T05:18:30.129Z,77.20
2017-08-28T05:19:27.434Z,77.22
2017-08-28T05:20:24.702Z,77.23
2017-08-28T05:21:21.969Z,77.25
2017-08-28T05:22:19.242Z,77.29
2017-08-28T05:23:16.522Z,77.29
2017-08-28T05:24:13.797Z,77.31
2017-08-28T05:25:11.103Z,77.33
2017-08-28T05:26:08.381Z,77.37
2017-08-28T05:27:05.653Z,77.38
2017-08-28T05:28:02.923Z,77.40
2017-08-28T05:29:00.209Z,77.41
2017-08-28T05:29:57.514Z,77.43
2017-08-28T05:30:54.805Z,77.43
2017-08-28T05:31:52.066Z,77.48
2017-08-28T05:32:49.339Z,77.50
2017-08-28T05:33:46.593Z,77.53
2017-08-28T05:34:43.885Z,77.52
2017-08-28T05:35:41.146Z,77.54
2017-08-28T05:36:38.430Z,77.56
2017-08-28T05:37:35.721Z,77.57
2017-08-28T05:38:33.006Z,77.59
2017-08-28T05:39:30.275Z,77.59
2017-08-28T05:40:27.682Z,77.59
2017-08-28T05:41:24.985Z,77.64
2017-08-28T05:42:22.291Z,77.65
2017-08-28T05:43:19.581Z,77.68
2017-08-28T05:44:16.866Z,77.67
2017-08-28T05:45:14.136Z,77.70
2017-08-28T05:46:11.413Z,77.73
2017-08-28T05:47:08.685Z,77.75
2017-08-28T05:48:05.977Z,77.75
2017-08-28T05:49:03.258Z,77.78
2017-08-28T05:50:00.642Z,77.81
2017-08-28T05:50:57.926Z,77.84
2017-08-28T05:51:55.201Z,77.86
2017-08-28T05:52:52.477Z,77.87
2017-08-28T05:53:49.754Z,77.89
2017-08-28T05:54:47.009Z,77.94
2017-08-28T05:55:44.314Z,77.98
2017-08-28T05:56:41.581Z,78.00
2017-08-28T05:57:38.866Z,78.03
2017-08-28T05:58:36.133Z,78.05
2017-08-28T05:59:33.417Z,78.06
2017-08-28T06:00:30.711Z,78.09
2017-08-28T06:01:28.006Z,78.13
2017-08-28T06:02:25.290Z,78.18
2017-08-28T06:03:22.594Z,78.21
2017-08-28T06:04:19.887Z,78.25
2017-08-28T06:05:17.202Z,78.26
2017-08-28T06:06:14.462Z,78.33
2017-08-28T06:07:11.757Z,78.34
2017-08-28T06:08:09.062Z,78.39
2017-08-28T06:09:06.497Z,78.43
2017-08-28T06:10:03.748Z,78.44
2017-08-28T06:11:01.058Z,78.49
2017-08-28T06:11:58.430Z,78.50
2017-08-28T06:12:55.753Z,78.53
2017-08-28T06:13:53.066Z,78.56
2017-08-28T06:14:50.362Z,78.61
2017-08-28T06:15:47.661Z,78.66
2017-08-28T06:16:44.962Z,78.71
2017-08-28T06:17:42.241Z,78.74
2017-08-28T06:18:39.613Z,78.75
2017-08-28T06:19:36.899Z,78.78
2017-08-28T06:20:34.190Z,78.82
2017-08-28T06:21:31.964Z,78.85
2017-08-28T06:22:29.247Z,78.89
2017-08-28T06:23:26.518Z,78.95
2017-08-28T06:24:23.864Z,78.99
2017-08-28T06:25:21.225Z,79.04
2017-08-28T06:26:18.578Z,79.07
2017-08-28T06:27:15.846Z,79.14
2017-08-28T06:28:13.117Z,79.16
2017-08-28T06:29:10.395Z,79.20
2017-08-28T06:30:07.744Z,79.22
2017-08-28T06:31:05.059Z,79.27
2017-08-28T06:32:02.326Z,79.31
2017-08-28T06:32:59.578Z,79.35
2017-08-28T06:33:56.894Z,79.40
2017-08-28T06:34:54.191Z,79.44
2017-08-28T06:35:51.473Z,79.51
2017-08-28T06:36:48.772Z,79.55
2017-08-28T06:37:46.046Z,79.60
2017-08-28T06:38:43.337Z,79.65
2017-08-28T06:39:40.604Z,79.68
2017-08-28T06:40:37.887Z,79.75
2017-08-28T06:41:35.190Z,79.77
2017-08-28T06:42:32.461Z,79.79
2017-08-28T06:43:29.730Z,79.82
2017-08-28T06:44:27.022Z,79.83
2017-08-28T06:45:24.331Z,79.90
2017-08-28T06:46:21.694Z,79.92
2017-08-28T06:47:18.977Z,79.97
2017-08-28T06:48:16.270Z,80.00
2017-08-28T06:49:13.836Z,80.03
2017-08-28T06:50:11.111Z,80.04
2017-08-28T06:51:08.435Z,80.08
2017-08-28T06:52:05.749Z,80.08
2017-08-28T06:53:03.038Z,80.09
2017-08-28T06:54:00.313Z,80.13
2017-08-28T06:54:57.582Z,80.16
2017-08-28T06:55:54.850Z,80.20
2017-08-28T06:56:52.149Z,80.19
2017-08-28T06:57:49.915Z,80.22
2017-08-28T06:58:47.437Z,80.25
2017-08-28T06:59:44.693Z,80.30
2017-08-28T07:00:41.958Z,80.32
2017-08-28T07:01:39.242Z,80.37
2017-08-28T07:02:36.559Z,80.39
2017-08-28T07:03:33.828Z,80.43
2017-08-28T07:04:31.122Z,80.50
2017-08-28T07:05:28.401Z,80.51
2017-08-28T07:06:25.711Z,80.59
2017-08-28T07:07:23.190Z,80.62
2017-08-28T07:08:21.041Z,80.67
2017-08-28T07:09:21.062Z,80.73
2017-08-28T07:10:18.611Z,80.76
2017-08-28T07:11:16.010Z,80.85
2017-08-28T07:12:13.322Z,80.92
2017-08-28T07:13:10.784Z,80.96
2017-08-28T07:14:08.054Z,80.99
2017-08-28T07:15:05.346Z,81.04
2017-08-28T07:16:02.633Z,81.05
2017-08-28T07:16:59.909Z,81.09
2017-08-28T07:17:57.207Z,81.15
2017-08-28T07:18:54.511Z,81.16
2017-08-28T07:19:51.794Z,81.20
2017-08-28T07:20:49.096Z,81.23
2017-08-28T07:21:46.373Z,81.25
2017-08-28T07:22:43.693Z,81.27
2017-08-28T07:23:40.969Z,81.34
2017-08-28T07:24:38.254Z,81.37
2017-08-28T07:25:35.537Z,81.42
2017-08-28T07:26:32.821Z,81.47
2017-08-28T07:27:30.102Z,81.51
2017-08-28T07:28:27.390Z,81.54
2017-08-28T07:29:24.719Z,81.60
2017-08-28T07:30:22.022Z,81.65
2017-08-28T07:31:19.281Z,81.71
2017-08-28T07:32:16.670Z,81.75
2017-08-28T07:33:13.954Z,81.79
2017-08-28T07:34:13.070Z,81.78
2017-08-28T07:35:13.693Z,81.83
2017-08-28T07:36:10.993Z,81.86
2017-08-28T07:37:10.412Z,81.91
2017-08-28T07:38:09.207Z,81.95
2017-08-28T07:39:06.838Z,81.98
2017-08-28T07:40:04.145Z,82.04
2017-08-28T07:41:01.445Z,82.08
2017-08-28T07:41:58.775Z,82.12
2017-08-28T07:42:56.100Z,82.15
2017-08-28T07:43:53.431Z,82.19
2017-08-28T07:44:50.727Z,82.19
2017-08-28T07:45:48.058Z,82.24
2017-08-28T07:46:45.361Z,82.26
2017-08-28T07:47:42.706Z,82.26
2017-08-28T07:48:40.036Z,82.29
2017-08-28T07:49:37.354Z,82.36
2017-08-28T07:50:34.648Z,82.41
2017-08-28T07:51:31.985Z,82.44
2017-08-28T07:52:29.278Z,82.45
2017-08-28T07:53:26.598Z,82.49
2017-08-28T07:54:24.009Z,82.50
2017-08-28T07:55:21.400Z,82.53
2017-08-28T07:56:18.862Z,82.58
2017-08-28T07:57:16.319Z,82.61
2017-08-28T07:58:13.644Z,82.66
2017-08-28T07:59:15.856Z,82.68
2017-08-28T08:00:21.475Z,82.73
2017-08-28T08:01:18.974Z,82.75
2017-08-28T08:02:22.401Z,82.79
2017-08-28T08:03:21.510Z,82.82
2017-08-28T08:04:23.617Z,82.82
2017-08-28T08:05:21.450Z,82.82
2017-08-28T08:06:19.092Z,82.86
2017-08-28T08:07:16.919Z,82.88
2017-08-28T08:08:14.354Z,82.89
2017-08-28T08:09:11.689Z,82.89
2017-08-28T08:10:11.581Z,82.92
2017-08-28T08:11:10.869Z,82.93
2017-08-28T08:12:09.975Z,82.93
2017-08-28T08:13:07.476Z,82.96
2017-08-28T08:14:07.622Z,83.00
2017-08-28T08:15:05.238Z,82.99
2017-08-28T08:16:02.656Z,83.03
2017-08-28T08:17:00.132Z,83.03
2017-08-28T08:17:57.461Z,83.08
2017-08-28T08:18:54.870Z,83.11
2017-08-28T08:19:52.142Z,83.12
2017-08-28T08:20:49.440Z,83.20
2017-08-28T08:21:46.710Z,83.29
2017-08-28T08:22:44.003Z,83.34
2017-08-28T08:23:41.307Z,83.38
2017-08-28T08:24:38.642Z,83.40
2017-08-28T08:25:35.974Z,83.36
2017-08-28T08:26:33.256Z,83.38
2017-08-28T08:27:30.515Z,83.37
2017-08-28T08:28:27.797Z,83.37
2017-08-28T08:29:25.075Z,83.36
2017-08-28T08:30:22.367Z,83.36
2017-08-28T08:31:19.659Z,83.35
2017-08-28T08:32:16.941Z,83.35
2017-08-28T08:33:14.197Z,83.38
2017-08-28T08:34:16.049Z,83.40
2017-08-28T08:35:17.874Z,83.37
2017-08-28T08:36:17.206Z,83.39
2017-08-28T08:37:14.501Z,83.40
2017-08-28T08:38:11.784Z,83.48
2017-08-28T08:39:09.113Z,83.55
2017-08-28T08:40:06.394Z,83.56
2017-08-28T08:41:03.694Z,83.57
2017-08-28T08:42:03.042Z,83.59
2017-08-28T08:43:02.425Z,83.56
2017-08-28T08:44:01.762Z,83.56
2017-08-28T08:45:01.110Z,83.57
2017-08-28T08:46:00.441Z,83.56
2017-08-28T08:46:57.782Z,83.58
2017-08-28T08:47:55.068Z,83.58
2017-08-28T08:48:52.362Z,83.61
2017-08-28T08:49:49.695Z,83.64
2017-08-28T08:50:46.953Z,83.67
2017-08-28T08:51:44.260Z,83.73
2017-08-28T08:52:41.535Z,83.74
2017-08-28T08:53:38.845Z,83.76
2017-08-28T08:54:36.141Z,83.76
2017-08-28T08:55:33.516Z,83.78
2017-08-28T08:56:30.914Z,83.80
2017-08-28T08:57:28.229Z,83.83
2017-08-28T08:58:25.498Z,83.88
2017-08-28T08:59:22.954Z,83.91
2017-08-28T09:00:20.270Z,83.94
2017-08-28T09:01:17.609Z,83.93
2017-08-28T09:02:14.909Z,83.98
2017-08-28T09:03:12.198Z,84.07
2017-08-28T09:04:14.034Z,84.08
2017-08-28T09:05:11.297Z,84.12
2017-08-28T09:06:08.618Z,84.15
2017-08-28T09:07:05.869Z,84.18
2017-08-28T09:08:03.164Z,84.16
2017-08-28T09:09:00.426Z,84.16
2017-08-28T09:09:57.701Z,84.16
2017-08-28T09:10:54.982Z,84.17
2017-08-28T09:11:52.251Z,84.20
2017-08-28T09:12:49.509Z,84.22
2017-08-28T09:13:46.816Z,84.18
2017-08-28T09:14:44.060Z,84.19
2017-08-28T09:15:41.366Z,84.18
2017-08-28T09:16:38.762Z,84.17
2017-08-28T09:17:36.126Z,84.19
2017-08-28T09:18:33.373Z,84.15
2017-08-28T09:19:30.637Z,84.07
2017-08-28T09:20:27.877Z,84.06
2017-08-28T09:21:25.157Z,84.03
2017-08-28T09:22:22.450Z,84.01
2017-08-28T09:23:19.725Z,84.03
2017-08-28T09:24:17.000Z,84.03
2017-08-28T09:25:14.273Z,84.01
2017-08-28T09:26:11.556Z,83.96
2017-08-28T09:27:08.848Z,83.92
2017-08-28T09:28:06.138Z,83.88
2017-08-28T09:29:03.433Z,83.88
2017-08-28T09:30:00.717Z,83.82
2017-08-28T09:30:58.021Z,83.78
2017-08-28T09:31:55.308Z,83.72
2017-08-28T09:32:52.609Z,83.70
2017-08-28T09:33:49.897Z,83.70
2017-08-28T09:34:47.160Z,83.67
2017-08-28T09:35:44.430Z,83.61
2017-08-28T09:36:41.727Z,83.57
2017-08-28T09:37:39.022Z,83.60
2017-08-28T09:38:36.306Z,83.59
2017-08-28T09:39:33.574Z,83.60
2017-08-28T09:40:30.867Z,83.57
2017-08-28T09:41:28.283Z,83.54
2017-08-28T09:42:25.582Z,83.52
2017-08-28T09:43:22.878Z,83.51
2017-08-28T09:44:20.448Z,83.56
2017-08-28T09:45:17.828Z,83.55
2017-08-28T09:46:15.106Z,83.51
2017-08-28T09:47:12.394Z,83.47
2017-08-28T09:48:09.669Z,83.42
2017-08-28T09:49:06.950Z,83.37
2017-08-28T09:50:04.234Z,83.43
2017-08-28T09:51:01.502Z,83.42
2017-08-28T09:51:58.822Z,83.46
2017-08-28T09:52:56.121Z,83.48
2017-08-28T09:53:53.421Z,83.44
2017-08-28T09:54:50.705Z,83.34
2017-08-28T09:55:50.054Z,83.27
2017-08-28T09:56:47.382Z,83.26
2017-08-28T09:57:44.661Z,83.22
2017-08-28T09:58:41.937Z,83.22
2017-08-28T09:59:39.223Z,83.20
2017-08-28T10:00:36.503Z,83.10
2017-08-28T10:01:33.799Z,83.03
2017-08-28T10:02:31.089Z,83.00
2017-08-28T10:03:28.390Z,82.94
2017-08-28T10:04:25.662Z,82.90
2017-08-28T10:05:22.971Z,82.84
2017-08-28T10:06:20.231Z,82.86
2017-08-28T10:07:17.551Z,82.91
2017-08-28T10:08:14.831Z,82.87
2017-08-28T10:09:12.139Z,82.78
2017-08-28T10:10:09.390Z,82.72
2017-08-28T10:11:06.677Z,82.70
2017-08-28T10:12:03.945Z,82.70
2017-08-28T10:13:01.262Z,82.59
2017-08-28T10:13:59.045Z,82.60
2017-08-28T10:14:57.944Z,82.60
2017-08-28T10:15:55.267Z,82.59
2017-08-28T10:16:52.570Z,82.48
2017-08-28T10:17:49.867Z,82.43
2017-08-28T10:18:47.182Z,82.41
2017-08-28T10:19:44.438Z,82.44
2017-08-28T10:20:41.734Z,82.38
2017-08-28T10:21:38.991Z,82.31
2017-08-28T10:22:36.359Z,82.25
2017-08-28T10:23:33.632Z,82.15
2017-08-28T10:24:30.926Z,82.09
2017-08-28T10:25:28.201Z,82.08
2017-08-28T10:26:25.510Z,82.07
2017-08-28T10:27:22.803Z,82.05
2017-08-28T10:28:19.573Z,82.04
2017-08-28T10:29:16.846Z,82.05
2017-08-28T10:30:14.170Z,82.01
2017-08-28T10:31:11.437Z,81.89
2017-08-28T10:32:08.715Z,81.87
2017-08-28T10:33:06.003Z,81.80
2017-08-28T10:34:03.302Z,81.76
2017-08-28T10:35:00.566Z,81.74
2017-08-28T10:35:57.855Z,81.70
2017-08-28T10:36:55.120Z,81.63
2017-08-28T10:37:52.429Z,81.50
2017-08-28T10:38:49.708Z,81.44
2017-08-28T10:39:47.029Z,81.43
2017-08-28T10:40:44.397Z,81.39
2017-08-28T10:41:41.687Z,81.33
2017-08-28T10:42:38.949Z,81.22
2017-08-28T10:43:36.261Z,81.18
2017-08-28T10:44:33.529Z,81.14
2017-08-28T10:45:30.829Z,81.07
2017-08-28T10:46:28.091Z,80.97
2017-08-28T10:47:25.377Z,80.89
2017-08-28T10:48:22.664Z,80.84
2017-08-28T10:49:19.950Z,80.78
2017-08-28T10:50:17.194Z,80.78
2017-08-28T10:51:14.472Z,80.75
2017-08-28T10:52:11.736Z,80.69
2017-08-28T10:53:09.029Z,80.69
2017-08-28T10:54:10.869Z,80.68
2017-08-28T10:55:08.141Z,80.73
2017-08-28T10:56:05.628Z,80.68
2017-08-28T10:57:02.902Z,80.62
2017-08-28T10:58:00.234Z,80.56
2017-08-28T10:58:57.531Z,80.47
2017-08-28T10:59:54.939Z,80.40
2017-08-28T11:00:52.214Z,80.40
2017-08-28T11:01:49.497Z,80.37
2017-08-28T11:02:46.792Z,80.32
2017-08-28T11:03:44.120Z,80.33
2017-08-28T11:04:41.726Z,80.38
2017-08-28T11:05:39.097Z,80.39
2017-08-28T11:06:36.374Z,80.35
2017-08-28T11:07:33.666Z,80.37
2017-08-28T11:08:30.950Z,80.33
2017-08-28T11:09:28.348Z,80.22
2017-08-28T11:10:25.638Z,80.11
2017-08-28T11:11:22.922Z,80.13
2017-08-28T11:12:20.171Z,80.17
2017-08-28T11:13:17.449Z,80.15
2017-08-28T11:14:14.729Z,80.08
2017-08-28T11:15:12.026Z,79.98
2017-08-28T11:16:09.281Z,79.91
2017-08-28T11:17:06.580Z,79.87
2017-08-28T11:18:03.833Z,79.84
2017-08-28T11:19:01.297Z,79.82
2017-08-28T11:19:58.550Z,79.78
2017-08-28T11:20:55.841Z,79.77
2017-08-28T11:21:53.188Z,79.76
2017-08-28T11:22:50.484Z,79.74
2017-08-28T11:23:47.748Z,79.66
2017-08-28T11:24:45.073Z,79.61
2017-08-28T11:25:42.334Z,79.55
2017-08-28T11:26:39.625Z,79.53
2017-08-28T11:27:36.885Z,79.53
2017-08-28T11:28:34.167Z,79.62
2017-08-28T11:29:31.445Z,79.60
2017-08-28T11:30:28.720Z,79.52
2017-08-28T11:31:25.970Z,79.42
2017-08-28T11:32:23.260Z,79.38
2017-08-28T11:33:20.521Z,79.36
2017-08-28T11:34:17.842Z,79.34
2017-08-28T11:35:15.098Z,79.31
2017-08-28T11:36:12.373Z,79.19
2017-08-28T11:37:09.609Z,79.10
2017-08-28T11:38:06.950Z,79.03
2017-08-28T11:39:04.232Z,78.96
2017-08-28T11:40:01.561Z,78.94
2017-08-28T11:40:58.816Z,78.91
2017-08-28T11:41:56.198Z,78.84
2017-08-28T11:42:53.513Z,78.79
2017-08-28T11:43:50.828Z,78.69
2017-08-28T11:44:48.148Z,78.59
2017-08-28T11:45:49.429Z,78.53
2017-08-28T11:46:47.015Z,78.49
2017-08-28T11:47:44.411Z,78.44
2017-08-28T11:48:41.849Z,78.41
2017-08-28T11:49:39.142Z,78.30
2017-08-28T11:50:36.631Z,78.16
2017-08-28T11:51:33.905Z,78.09
2017-08-28T11:52:31.177Z,78.03
2017-08-28T11:53:28.413Z,77.98
2017-08-28T11:54:25.702Z,77.87
2017-08-28T11:55:22.964Z,77.72
2017-08-28T11:56:20.278Z,77.67
2017-08-28T11:57:17.558Z,77.59
2017-08-28T11:58:14.832Z,77.47
2017-08-28T11:59:12.094Z,77.43
2017-08-28T12:00:09.395Z,77.36
2017-08-28T12:01:06.683Z,77.29
2017-08-28T12:02:03.971Z,77.21
2017-08-28T12:03:01.248Z,77.17
2017-08-28T12:03:58.557Z,77.17
2017-08-28T12:04:55.814Z,77.14
2017-08-28T12:05:53.098Z,77.17
2017-08-28T12:06:50.357Z,77.16
2017-08-28T12:07:47.629Z,77.12
2017-08-28T12:08:44.909Z,77.00
2017-08-28T12:09:42.194Z,76.88
2017-08-28T12:10:39.486Z,76.82
2017-08-28T12:11:36.757Z,76.72
2017-08-28T12:12:34.017Z,76.67
2017-08-28T12:13:31.308Z,76.67
2017-08-28T12:14:28.594Z,76.66
2017-08-28T12:15:31.090Z,76.62
2017-08-28T12:16:33.568Z,76.61
2017-08-28T12:17:35.997Z,76.61
2017-08-28T12:18:33.279Z,76.59
2017-08-28T12:19:30.510Z,76.49